sensor_id;sensor_type;location;lat;lon;timestamp;temperature;humidity
1405;DHT22;697;51.114;6.542;2023-07-09T00:01:40;26.60;58.10
1405;DHT22;697;51.114;6.542;2023-07-09T00:04:08;26.50;58.30
1405;DHT22;697;51.114;6.542;2023-07-09T00:06:37;26.40;58.50
1405;DHT22;697;51.114;6.542;2023-07-09T00:09:03;26.30;58.60
1405;DHT22;697;51.114;6.542;2023-07-09T00:11:31;26.30;58.90
1405;DHT22;697;51.114;6.542;2023-07-09T00:13:58;26.20;59.40
1405;DHT22;697;51.114;6.542;2023-07-09T00:16:25;26.20;59.00
1405;DHT22;697;51.114;6.542;2023-07-09T00:18:52;26.20;59.30
1405;DHT22;697;51.114;6.542;2023-07-09T00:21:20;26.10;59.20
1405;DHT22;697;51.114;6.542;2023-07-09T00:23:49;26.00;59.60
1405;DHT22;697;51.114;6.542;2023-07-09T00:26:17;25.90;59.90
1405;DHT22;697;51.114;6.542;2023-07-09T00:28:46;25.90;60.00
1405;DHT22;697;51.114;6.542;2023-07-09T00:31:15;25.90;60.30
1405;DHT22;697;51.114;6.542;2023-07-09T00:33:42;25.80;60.80
1405;DHT22;697;51.114;6.542;2023-07-09T00:36:14;25.80;61.00
1405;DHT22;697;51.114;6.542;2023-07-09T00:38:41;25.70;61.00
1405;DHT22;697;51.114;6.542;2023-07-09T00:41:17;25.70;61.40
1405;DHT22;697;51.114;6.542;2023-07-09T00:43:45;25.70;61.70
1405;DHT22;697;51.114;6.542;2023-07-09T00:49:28;25.60;62.40
1405;DHT22;697;51.114;6.542;2023-07-09T00:51:57;25.50;62.50
1405;DHT22;697;51.114;6.542;2023-07-09T00:54:32;25.50;63.00
1405;DHT22;697;51.114;6.542;2023-07-09T00:57:06;25.40;63.30
1405;DHT22;697;51.114;6.542;2023-07-09T00:59:34;25.40;63.40
1405;DHT22;697;51.114;6.542;2023-07-09T01:02:01;25.30;63.20
1405;DHT22;697;51.114;6.542;2023-07-09T01:04:29;25.30;63.50
1405;DHT22;697;51.114;6.542;2023-07-09T01:06:56;25.20;63.70
1405;DHT22;697;51.114;6.542;2023-07-09T01:09:24;25.20;63.90
1405;DHT22;697;51.114;6.542;2023-07-09T01:11:51;25.20;64.30
1405;DHT22;697;51.114;6.542;2023-07-09T01:14:24;25.10;64.50
1405;DHT22;697;51.114;6.542;2023-07-09T01:16:56;25.10;65.20
1405;DHT22;697;51.114;6.542;2023-07-09T01:19:27;25.10;65.50
1405;DHT22;697;51.114;6.542;2023-07-09T01:21:56;25.10;65.50
1405;DHT22;697;51.114;6.542;2023-07-09T01:24:47;25.10;65.80
1405;DHT22;697;51.114;6.542;2023-07-09T01:27:15;25.00;66.00
1405;DHT22;697;51.114;6.542;2023-07-09T01:29:43;25.00;66.30
1405;DHT22;697;51.114;6.542;2023-07-09T01:32:13;25.00;67.00
1405;DHT22;697;51.114;6.542;2023-07-09T01:34:40;24.90;67.10
1405;DHT22;697;51.114;6.542;2023-07-09T01:37:09;24.90;67.80
1405;DHT22;697;51.114;6.542;2023-07-09T01:39:36;24.80;67.70
1405;DHT22;697;51.114;6.542;2023-07-09T01:42:06;24.70;68.10
1405;DHT22;697;51.114;6.542;2023-07-09T01:44:34;24.70;68.00
1405;DHT22;697;51.114;6.542;2023-07-09T01:47:01;24.70;67.90
1405;DHT22;697;51.114;6.542;2023-07-09T01:49:29;24.60;67.70
1405;DHT22;697;51.114;6.542;2023-07-09T01:51:58;24.50;67.80
1405;DHT22;697;51.114;6.542;2023-07-09T01:54:28;24.50;67.80
1405;DHT22;697;51.114;6.542;2023-07-09T01:57:12;24.50;68.20
1405;DHT22;697;51.114;6.542;2023-07-09T01:59:38;24.50;68.60
1405;DHT22;697;51.114;6.542;2023-07-09T02:02:06;24.40;68.80
1405;DHT22;697;51.114;6.542;2023-07-09T02:04:33;24.40;69.30
1405;DHT22;697;51.114;6.542;2023-07-09T02:07:00;24.40;69.30
1405;DHT22;697;51.114;6.542;2023-07-09T02:09:28;24.40;69.40
1405;DHT22;697;51.114;6.542;2023-07-09T02:11:54;24.40;69.60
1405;DHT22;697;51.114;6.542;2023-07-09T02:14:21;24.30;70.00
1405;DHT22;697;51.114;6.542;2023-07-09T02:16:48;24.30;70.40
1405;DHT22;697;51.114;6.542;2023-07-09T02:19:14;24.30;70.90
1405;DHT22;697;51.114;6.542;2023-07-09T02:21:41;24.30;71.20
1405;DHT22;697;51.114;6.542;2023-07-09T02:24:08;24.30;71.30
1405;DHT22;697;51.114;6.542;2023-07-09T02:26:36;24.20;71.60
1405;DHT22;697;51.114;6.542;2023-07-09T02:29:02;24.10;71.50
1405;DHT22;697;51.114;6.542;2023-07-09T02:31:29;24.10;71.50
1405;DHT22;697;51.114;6.542;2023-07-09T02:33:56;24.10;71.70
1405;DHT22;697;51.114;6.542;2023-07-09T02:36:24;24.10;71.90
1405;DHT22;697;51.114;6.542;2023-07-09T02:38:51;24.10;71.80
1405;DHT22;697;51.114;6.542;2023-07-09T02:41:17;24.10;72.20
1405;DHT22;697;51.114;6.542;2023-07-09T02:43:45;24.00;72.20
1405;DHT22;697;51.114;6.542;2023-07-09T02:46:12;24.00;72.90
1405;DHT22;697;51.114;6.542;2023-07-09T02:48:39;24.00;73.00
1405;DHT22;697;51.114;6.542;2023-07-09T02:51:05;24.00;73.10
1405;DHT22;697;51.114;6.542;2023-07-09T02:53:32;24.00;73.10
1405;DHT22;697;51.114;6.542;2023-07-09T02:55:59;24.00;73.50
1405;DHT22;697;51.114;6.542;2023-07-09T02:58:25;24.00;73.80
1405;DHT22;697;51.114;6.542;2023-07-09T03:00:53;24.00;74.00
1405;DHT22;697;51.114;6.542;2023-07-09T03:03:20;24.00;74.00
1405;DHT22;697;51.114;6.542;2023-07-09T03:05:47;24.00;74.30
1405;DHT22;697;51.114;6.542;2023-07-09T03:08:14;24.00;74.10
1405;DHT22;697;51.114;6.542;2023-07-09T03:10:41;24.00;74.20
1405;DHT22;697;51.114;6.542;2023-07-09T03:13:08;24.00;74.60
1405;DHT22;697;51.114;6.542;2023-07-09T03:15:34;24.00;75.00
1405;DHT22;697;51.114;6.542;2023-07-09T03:18:03;24.00;75.10
1405;DHT22;697;51.114;6.542;2023-07-09T03:20:29;24.00;75.40
1405;DHT22;697;51.114;6.542;2023-07-09T03:22:57;24.00;75.40
1405;DHT22;697;51.114;6.542;2023-07-09T03:25:24;24.00;75.70
1405;DHT22;697;51.114;6.542;2023-07-09T03:27:50;24.00;76.00
1405;DHT22;697;51.114;6.542;2023-07-09T03:30:17;24.00;76.00
1405;DHT22;697;51.114;6.542;2023-07-09T03:32:44;24.00;76.00
1405;DHT22;697;51.114;6.542;2023-07-09T03:35:12;23.90;76.10
1405;DHT22;697;51.114;6.542;2023-07-09T03:37:38;23.90;76.60
1405;DHT22;697;51.114;6.542;2023-07-09T03:40:08;23.90;76.70
1405;DHT22;697;51.114;6.542;2023-07-09T03:42:35;23.90;76.90
1405;DHT22;697;51.114;6.542;2023-07-09T03:45:02;23.90;77.10
1405;DHT22;697;51.114;6.542;2023-07-09T03:47:29;23.90;77.20
1405;DHT22;697;51.114;6.542;2023-07-09T03:49:55;23.90;77.20
1405;DHT22;697;51.114;6.542;2023-07-09T03:52:23;23.90;77.00
1405;DHT22;697;51.114;6.542;2023-07-09T03:54:50;23.90;77.10
1405;DHT22;697;51.114;6.542;2023-07-09T03:57:16;23.90;76.90
1405;DHT22;697;51.114;6.542;2023-07-09T03:59:43;23.90;77.20
1405;DHT22;697;51.114;6.542;2023-07-09T04:02:10;23.80;77.10
1405;DHT22;697;51.114;6.542;2023-07-09T04:04:37;23.80;77.20
1405;DHT22;697;51.114;6.542;2023-07-09T04:07:03;23.80;77.20
1405;DHT22;697;51.114;6.542;2023-07-09T04:09:32;23.90;77.30
1405;DHT22;697;51.114;6.542;2023-07-09T04:11:58;23.80;77.10
1405;DHT22;697;51.114;6.542;2023-07-09T04:14:26;23.90;77.50
1405;DHT22;697;51.114;6.542;2023-07-09T04:16:53;23.80;77.50
1405;DHT22;697;51.114;6.542;2023-07-09T04:19:20;23.80;78.10
1405;DHT22;697;51.114;6.542;2023-07-09T04:21:47;23.80;77.80
1405;DHT22;697;51.114;6.542;2023-07-09T04:24:14;23.80;78.10
1405;DHT22;697;51.114;6.542;2023-07-09T04:26:44;23.80;78.40
1405;DHT22;697;51.114;6.542;2023-07-09T04:29:10;23.80;78.60
1405;DHT22;697;51.114;6.542;2023-07-09T04:31:37;23.90;78.70
1405;DHT22;697;51.114;6.542;2023-07-09T04:34:04;23.90;78.90
1405;DHT22;697;51.114;6.542;2023-07-09T04:36:32;23.90;79.00
1405;DHT22;697;51.114;6.542;2023-07-09T04:38:58;23.90;79.00
1405;DHT22;697;51.114;6.542;2023-07-09T04:41:25;24.00;79.10
1405;DHT22;697;51.114;6.542;2023-07-09T04:43:53;24.00;79.10
1405;DHT22;697;51.114;6.542;2023-07-09T04:46:20;24.10;79.30
1405;DHT22;697;51.114;6.542;2023-07-09T04:48:47;24.10;79.30
1405;DHT22;697;51.114;6.542;2023-07-09T04:51:13;24.10;79.40
1405;DHT22;697;51.114;6.542;2023-07-09T04:53:40;24.20;79.40
1405;DHT22;697;51.114;6.542;2023-07-09T04:56:07;24.30;79.00
1405;DHT22;697;51.114;6.542;2023-07-09T04:58:35;24.30;78.60
1405;DHT22;697;51.114;6.542;2023-07-09T05:01:03;24.30;78.00
1405;DHT22;697;51.114;6.542;2023-07-09T05:03:29;24.40;77.60
1405;DHT22;697;51.114;6.542;2023-07-09T05:05:56;24.50;77.10
1405;DHT22;697;51.114;6.542;2023-07-09T05:08:23;24.50;77.20
1405;DHT22;697;51.114;6.542;2023-07-09T05:10:51;24.50;77.50
1405;DHT22;697;51.114;6.542;2023-07-09T05:13:19;24.60;78.00
1405;DHT22;697;51.114;6.542;2023-07-09T05:15:46;24.70;77.80
1405;DHT22;697;51.114;6.542;2023-07-09T05:18:15;24.70;77.40
1405;DHT22;697;51.114;6.542;2023-07-09T05:20:42;24.70;77.00
1405;DHT22;697;51.114;6.542;2023-07-09T05:23:09;24.80;76.60
1405;DHT22;697;51.114;6.542;2023-07-09T05:25:37;24.90;76.40
1405;DHT22;697;51.114;6.542;2023-07-09T05:28:04;24.90;75.70
1405;DHT22;697;51.114;6.542;2023-07-09T05:30:31;25.00;75.30
1405;DHT22;697;51.114;6.542;2023-07-09T05:32:58;25.00;75.20
1405;DHT22;697;51.114;6.542;2023-07-09T05:35:26;25.10;75.30
1405;DHT22;697;51.114;6.542;2023-07-09T05:37:53;25.10;74.80
1405;DHT22;697;51.114;6.542;2023-07-09T05:40:21;25.20;74.50
1405;DHT22;697;51.114;6.542;2023-07-09T05:42:48;25.20;74.20
1405;DHT22;697;51.114;6.542;2023-07-09T05:45:15;25.30;74.00
1405;DHT22;697;51.114;6.542;2023-07-09T05:47:42;25.40;74.00
1405;DHT22;697;51.114;6.542;2023-07-09T05:50:09;25.40;73.20
1405;DHT22;697;51.114;6.542;2023-07-09T05:52:37;25.50;73.20
1405;DHT22;697;51.114;6.542;2023-07-09T05:55:05;25.50;72.80
1405;DHT22;697;51.114;6.542;2023-07-09T05:57:32;25.60;72.60
1405;DHT22;697;51.114;6.542;2023-07-09T05:59:58;25.70;72.50
1405;DHT22;697;51.114;6.542;2023-07-09T06:02:25;25.70;72.10
1405;DHT22;697;51.114;6.542;2023-07-09T06:04:52;25.80;71.90
1405;DHT22;697;51.114;6.542;2023-07-09T06:07:18;25.90;71.60
1405;DHT22;697;51.114;6.542;2023-07-09T06:09:47;26.00;71.50
1405;DHT22;697;51.114;6.542;2023-07-09T06:12:14;26.10;71.00
1405;DHT22;697;51.114;6.542;2023-07-09T06:14:40;26.10;70.80
1405;DHT22;697;51.114;6.542;2023-07-09T06:17:07;26.30;70.60
1405;DHT22;697;51.114;6.542;2023-07-09T06:19:34;26.30;70.70
1405;DHT22;697;51.114;6.542;2023-07-09T06:22:00;26.40;70.20
1405;DHT22;697;51.114;6.542;2023-07-09T06:24:27;26.50;69.80
1405;DHT22;697;51.114;6.542;2023-07-09T06:26:55;26.60;69.30
1405;DHT22;697;51.114;6.542;2023-07-09T06:29:22;26.70;69.40
1405;DHT22;697;51.114;6.542;2023-07-09T06:31:49;26.70;68.80
1405;DHT22;697;51.114;6.542;2023-07-09T06:34:15;26.80;68.50
1405;DHT22;697;51.114;6.542;2023-07-09T06:36:42;26.90;68.20
1405;DHT22;697;51.114;6.542;2023-07-09T06:39:09;27.00;67.70
1405;DHT22;697;51.114;6.542;2023-07-09T06:41:36;27.10;67.30
1405;DHT22;697;51.114;6.542;2023-07-09T06:44:06;27.30;67.00
1405;DHT22;697;51.114;6.542;2023-07-09T06:46:33;27.40;66.50
1405;DHT22;697;51.114;6.542;2023-07-09T06:49:00;27.50;66.30
1405;DHT22;697;51.114;6.542;2023-07-09T06:51:26;27.60;65.50
1405;DHT22;697;51.114;6.542;2023-07-09T06:53:53;27.70;65.30
1405;DHT22;697;51.114;6.542;2023-07-09T06:56:20;27.90;64.60
1405;DHT22;697;51.114;6.542;2023-07-09T06:58:47;28.00;64.10
1405;DHT22;697;51.114;6.542;2023-07-09T07:01:15;28.10;63.40
1405;DHT22;697;51.114;6.542;2023-07-09T07:03:42;28.30;63.20
1405;DHT22;697;51.114;6.542;2023-07-09T07:06:08;28.40;62.40
1405;DHT22;697;51.114;6.542;2023-07-09T07:08:35;28.60;61.90
1405;DHT22;697;51.114;6.542;2023-07-09T07:11:03;28.70;61.70
1405;DHT22;697;51.114;6.542;2023-07-09T07:13:32;28.90;61.30
1405;DHT22;697;51.114;6.542;2023-07-09T07:16:00;29.10;60.80
1405;DHT22;697;51.114;6.542;2023-07-09T07:18:29;29.20;59.50
1405;DHT22;697;51.114;6.542;2023-07-09T07:20:55;29.40;59.30
1405;DHT22;697;51.114;6.542;2023-07-09T07:23:22;29.50;58.50
1405;DHT22;697;51.114;6.542;2023-07-09T07:25:49;29.70;58.30
1405;DHT22;697;51.114;6.542;2023-07-09T07:28:17;29.90;57.30
1405;DHT22;697;51.114;6.542;2023-07-09T07:30:44;30.00;57.30
1405;DHT22;697;51.114;6.542;2023-07-09T07:33:15;30.20;57.00
1405;DHT22;697;51.114;6.542;2023-07-09T07:35:43;30.40;56.20
1405;DHT22;697;51.114;6.542;2023-07-09T07:38:09;30.60;56.40
1405;DHT22;697;51.114;6.542;2023-07-09T07:40:36;30.80;55.10
1405;DHT22;697;51.114;6.542;2023-07-09T07:43:03;31.00;55.10
1405;DHT22;697;51.114;6.542;2023-07-09T07:45:30;31.10;55.10
1405;DHT22;697;51.114;6.542;2023-07-09T07:47:56;31.30;54.70
1405;DHT22;697;51.114;6.542;2023-07-09T07:50:23;31.50;54.40
1405;DHT22;697;51.114;6.542;2023-07-09T07:52:51;31.70;53.50
1405;DHT22;697;51.114;6.542;2023-07-09T07:55:18;31.90;52.40
1405;DHT22;697;51.114;6.542;2023-07-09T07:57:45;32.00;51.60
1405;DHT22;697;51.114;6.542;2023-07-09T08:00:13;32.30;51.50
1405;DHT22;697;51.114;6.542;2023-07-09T08:02:39;32.50;51.00
1405;DHT22;697;51.114;6.542;2023-07-09T08:05:07;32.70;50.00
1405;DHT22;697;51.114;6.542;2023-07-09T08:07:33;32.80;49.20
1405;DHT22;697;51.114;6.542;2023-07-09T08:10:01;33.10;48.80
1405;DHT22;697;51.114;6.542;2023-07-09T08:12:28;33.20;48.10
1405;DHT22;697;51.114;6.542;2023-07-09T08:14:55;33.40;46.20
1405;DHT22;697;51.114;6.542;2023-07-09T08:17:22;33.60;46.50
1405;DHT22;697;51.114;6.542;2023-07-09T08:19:52;33.70;46.70
1405;DHT22;697;51.114;6.542;2023-07-09T08:22:20;33.90;45.90
1405;DHT22;697;51.114;6.542;2023-07-09T08:24:47;34.10;45.70
1405;DHT22;697;51.114;6.542;2023-07-09T08:27:15;34.40;45.30
1405;DHT22;697;51.114;6.542;2023-07-09T08:29:42;34.50;44.20
1405;DHT22;697;51.114;6.542;2023-07-09T08:32:10;34.70;43.80
1405;DHT22;697;51.114;6.542;2023-07-09T08:34:38;34.80;43.30
1405;DHT22;697;51.114;6.542;2023-07-09T08:37:05;35.00;43.20
1405;DHT22;697;51.114;6.542;2023-07-09T08:39:32;35.20;42.90
1405;DHT22;697;51.114;6.542;2023-07-09T08:42:02;35.40;42.40
1405;DHT22;697;51.114;6.542;2023-07-09T08:44:48;35.60;41.70
1405;DHT22;697;51.114;6.542;2023-07-09T08:47:24;35.80;40.10
1405;DHT22;697;51.114;6.542;2023-07-09T08:49:59;36.00;39.40
1405;DHT22;697;51.114;6.542;2023-07-09T08:52:31;36.10;38.20
1405;DHT22;697;51.114;6.542;2023-07-09T08:55:03;36.20;38.90
1405;DHT22;697;51.114;6.542;2023-07-09T08:57:34;36.40;39.80
1405;DHT22;697;51.114;6.542;2023-07-09T09:00:10;36.60;38.60
1405;DHT22;697;51.114;6.542;2023-07-09T09:02:44;36.80;37.50
1405;DHT22;697;51.114;6.542;2023-07-09T09:05:16;37.00;38.00
1405;DHT22;697;51.114;6.542;2023-07-09T09:07:44;37.20;37.20
1405;DHT22;697;51.114;6.542;2023-07-09T09:10:17;37.30;36.00
1405;DHT22;697;51.114;6.542;2023-07-09T09:12:55;37.60;36.50
1405;DHT22;697;51.114;6.542;2023-07-09T09:15:25;37.70;37.10
1405;DHT22;697;51.114;6.542;2023-07-09T09:17:54;38.00;36.70
1405;DHT22;697;51.114;6.542;2023-07-09T09:20:22;38.20;35.20
1405;DHT22;697;51.114;6.542;2023-07-09T09:22:54;38.30;33.20
1405;DHT22;697;51.114;6.542;2023-07-09T09:25:27;38.40;32.80
1405;DHT22;697;51.114;6.542;2023-07-09T09:27:54;38.60;33.30
1405;DHT22;697;51.114;6.542;2023-07-09T09:30:24;38.80;33.40
1405;DHT22;697;51.114;6.542;2023-07-09T09:32:54;38.90;31.70
1405;DHT22;697;51.114;6.542;2023-07-09T09:35:26;39.00;31.90
1405;DHT22;697;51.114;6.542;2023-07-09T09:37:55;39.30;32.60
1405;DHT22;697;51.114;6.542;2023-07-09T09:40:23;39.40;31.50
1405;DHT22;697;51.114;6.542;2023-07-09T09:42:50;39.50;30.70
1405;DHT22;697;51.114;6.542;2023-07-09T09:45:21;39.70;30.80
1405;DHT22;697;51.114;6.542;2023-07-09T09:47:49;39.90;31.50
1405;DHT22;697;51.114;6.542;2023-07-09T09:50:17;40.20;32.00
1405;DHT22;697;51.114;6.542;2023-07-09T09:52:46;40.40;32.50
1405;DHT22;697;51.114;6.542;2023-07-09T09:55:17;40.60;30.50
1405;DHT22;697;51.114;6.542;2023-07-09T09:57:48;40.70;28.60
1405;DHT22;697;51.114;6.542;2023-07-09T10:00:16;40.90;28.60
1405;DHT22;697;51.114;6.542;2023-07-09T10:02:43;41.10;28.60
1405;DHT22;697;51.114;6.542;2023-07-09T10:05:13;41.40;29.40
1405;DHT22;697;51.114;6.542;2023-07-09T10:07:45;41.70;29.60
1405;DHT22;697;51.114;6.542;2023-07-09T10:10:19;42.00;29.50
1405;DHT22;697;51.114;6.542;2023-07-09T10:12:50;42.30;28.80
1405;DHT22;697;51.114;6.542;2023-07-09T10:15:26;42.60;26.90
1405;DHT22;697;51.114;6.542;2023-07-09T10:17:58;42.90;26.90
1405;DHT22;697;51.114;6.542;2023-07-09T10:20:34;43.20;27.00
1405;DHT22;697;51.114;6.542;2023-07-09T10:23:07;43.50;25.80
1405;DHT22;697;51.114;6.542;2023-07-09T10:25:42;43.80;24.80
1405;DHT22;697;51.114;6.542;2023-07-09T10:28:26;44.10;25.70
1405;DHT22;697;51.114;6.542;2023-07-09T10:31:00;44.50;25.20
1405;DHT22;697;51.114;6.542;2023-07-09T10:33:40;44.90;23.90
1405;DHT22;697;51.114;6.542;2023-07-09T10:36:22;45.30;24.00
1405;DHT22;697;51.114;6.542;2023-07-09T10:38:56;45.60;21.50
1405;DHT22;697;51.114;6.542;2023-07-09T10:41:26;45.50;21.30
1405;DHT22;697;51.114;6.542;2023-07-09T10:43:58;45.70;21.60
1405;DHT22;697;51.114;6.542;2023-07-09T10:46:29;46.10;22.00
1405;DHT22;697;51.114;6.542;2023-07-09T10:48:58;46.50;22.00
1405;DHT22;697;51.114;6.542;2023-07-09T10:51:32;47.00;20.60
1405;DHT22;697;51.114;6.542;2023-07-09T10:54:02;47.40;21.20
1405;DHT22;697;51.114;6.542;2023-07-09T10:56:34;47.90;21.20
1405;DHT22;697;51.114;6.542;2023-07-09T10:59:06;48.50;20.90
1405;DHT22;697;51.114;6.542;2023-07-09T11:01:40;49.00;20.30
1405;DHT22;697;51.114;6.542;2023-07-09T11:04:20;49.40;17.80
1405;DHT22;697;51.114;6.542;2023-07-09T11:06:54;49.70;17.40
1405;DHT22;697;51.114;6.542;2023-07-09T11:09:25;50.00;18.60
1405;DHT22;697;51.114;6.542;2023-07-09T11:11:56;50.20;17.30
1405;DHT22;697;51.114;6.542;2023-07-09T11:14:28;50.40;17.30
1405;DHT22;697;51.114;6.542;2023-07-09T11:16:58;50.50;16.70
1405;DHT22;697;51.114;6.542;2023-07-09T11:19:26;50.50;17.30
1405;DHT22;697;51.114;6.542;2023-07-09T11:22:04;50.70;17.70
1405;DHT22;697;51.114;6.542;2023-07-09T11:24:35;51.10;18.70
1405;DHT22;697;51.114;6.542;2023-07-09T11:27:02;51.40;17.70
1405;DHT22;697;51.114;6.542;2023-07-09T11:29:29;51.60;17.50
1405;DHT22;697;51.114;6.542;2023-07-09T11:32:08;51.80;17.50
1405;DHT22;697;51.114;6.542;2023-07-09T11:34:45;51.90;17.30
1405;DHT22;697;51.114;6.542;2023-07-09T11:37:15;51.90;17.30
1405;DHT22;697;51.114;6.542;2023-07-09T11:39:44;51.80;17.60
1405;DHT22;697;51.114;6.542;2023-07-09T11:42:25;51.50;17.00
1405;DHT22;697;51.114;6.542;2023-07-09T11:44:56;51.10;17.40
1405;DHT22;697;51.114;6.542;2023-07-09T11:47:25;50.60;18.60
1405;DHT22;697;51.114;6.542;2023-07-09T11:49:57;50.10;17.60
1405;DHT22;697;51.114;6.542;2023-07-09T11:52:30;49.50;17.90
1405;DHT22;697;51.114;6.542;2023-07-09T11:55:02;49.10;18.60
1405;DHT22;697;51.114;6.542;2023-07-09T11:57:29;48.60;18.60
1405;DHT22;697;51.114;6.542;2023-07-09T11:59:59;48.40;18.50
1405;DHT22;697;51.114;6.542;2023-07-09T12:02:31;48.20;17.50
1405;DHT22;697;51.114;6.542;2023-07-09T12:04:59;48.00;16.70
1405;DHT22;697;51.114;6.542;2023-07-09T12:07:30;47.60;17.90
1405;DHT22;697;51.114;6.542;2023-07-09T12:09:56;47.60;17.30
1405;DHT22;697;51.114;6.542;2023-07-09T12:12:24;47.60;17.20
1405;DHT22;697;51.114;6.542;2023-07-09T12:14:51;47.70;17.00
1405;DHT22;697;51.114;6.542;2023-07-09T12:17:18;47.80;17.10
1405;DHT22;697;51.114;6.542;2023-07-09T12:19:45;47.30;17.20
1405;DHT22;697;51.114;6.542;2023-07-09T12:22:17;46.60;18.30
1405;DHT22;697;51.114;6.542;2023-07-09T12:24:48;45.90;18.00
1405;DHT22;697;51.114;6.542;2023-07-09T12:27:19;45.30;18.70
1405;DHT22;697;51.114;6.542;2023-07-09T12:29:46;44.70;18.90
1405;DHT22;697;51.114;6.542;2023-07-09T12:32:14;44.30;19.90
1405;DHT22;697;51.114;6.542;2023-07-09T12:34:41;44.00;20.00
1405;DHT22;697;51.114;6.542;2023-07-09T12:37:12;43.90;19.70
1405;DHT22;697;51.114;6.542;2023-07-09T12:39:39;43.90;19.00
1405;DHT22;697;51.114;6.542;2023-07-09T12:42:16;43.90;19.00
1405;DHT22;697;51.114;6.542;2023-07-09T12:44:43;43.60;20.70
1405;DHT22;697;51.114;6.542;2023-07-09T12:47:13;43.10;21.40
1405;DHT22;697;51.114;6.542;2023-07-09T12:49:42;42.60;22.60
1405;DHT22;697;51.114;6.542;2023-07-09T12:52:14;42.10;23.70
1405;DHT22;697;51.114;6.542;2023-07-09T12:54:52;41.60;24.60
1405;DHT22;697;51.114;6.542;2023-07-09T12:57:23;41.20;25.70
1405;DHT22;697;51.114;6.542;2023-07-09T12:59:50;40.70;26.30
1405;DHT22;697;51.114;6.542;2023-07-09T13:02:19;40.40;27.50
1405;DHT22;697;51.114;6.542;2023-07-09T13:04:48;40.00;28.50
1405;DHT22;697;51.114;6.542;2023-07-09T13:07:27;39.60;28.20
1405;DHT22;697;51.114;6.542;2023-07-09T13:09:55;39.30;26.70
1405;DHT22;697;51.114;6.542;2023-07-09T13:12:30;38.90;26.90
1405;DHT22;697;51.114;6.542;2023-07-09T13:14:58;38.50;28.80
1405;DHT22;697;51.114;6.542;2023-07-09T13:17:28;38.20;31.60
1405;DHT22;697;51.114;6.542;2023-07-09T13:19:56;37.80;35.20
1405;DHT22;697;51.114;6.542;2023-07-09T13:22:23;37.40;38.50
1405;DHT22;697;51.114;6.542;2023-07-09T13:24:51;37.00;40.60
1405;DHT22;697;51.114;6.542;2023-07-09T13:27:17;36.50;42.10
1405;DHT22;697;51.114;6.542;2023-07-09T13:29:46;36.00;40.40
1405;DHT22;697;51.114;6.542;2023-07-09T13:32:14;35.30;38.90
1405;DHT22;697;51.114;6.542;2023-07-09T13:34:41;34.70;38.80
1405;DHT22;697;51.114;6.542;2023-07-09T13:37:12;34.10;39.30
1405;DHT22;697;51.114;6.542;2023-07-09T13:39:39;33.40;38.80
1405;DHT22;697;51.114;6.542;2023-07-09T13:42:11;33.00;39.30
1405;DHT22;697;51.114;6.542;2023-07-09T13:44:39;32.40;39.00
1405;DHT22;697;51.114;6.542;2023-07-09T13:47:12;32.00;41.80
1405;DHT22;697;51.114;6.542;2023-07-09T13:49:40;31.60;41.90
1405;DHT22;697;51.114;6.542;2023-07-09T13:52:13;31.50;43.40
1405;DHT22;697;51.114;6.542;2023-07-09T13:54:40;31.60;44.10
1405;DHT22;697;51.114;6.542;2023-07-09T13:57:12;31.60;40.90
1405;DHT22;697;51.114;6.542;2023-07-09T13:59:39;31.60;41.80
1405;DHT22;697;51.114;6.542;2023-07-09T14:02:19;31.50;42.30
1405;DHT22;697;51.114;6.542;2023-07-09T14:04:46;31.40;41.90
1405;DHT22;697;51.114;6.542;2023-07-09T14:07:22;31.40;39.80
1405;DHT22;697;51.114;6.542;2023-07-09T14:09:50;31.40;40.90
1405;DHT22;697;51.114;6.542;2023-07-09T14:12:17;31.30;43.60
1405;DHT22;697;51.114;6.542;2023-07-09T14:14:44;31.20;45.30
1405;DHT22;697;51.114;6.542;2023-07-09T14:17:13;31.10;44.30
1405;DHT22;697;51.114;6.542;2023-07-09T14:19:39;31.00;44.50
1405;DHT22;697;51.114;6.542;2023-07-09T14:22:20;30.70;46.60
1405;DHT22;697;51.114;6.542;2023-07-09T14:24:48;30.30;49.70
1405;DHT22;697;51.114;6.542;2023-07-09T14:27:14;29.80;51.60
1405;DHT22;697;51.114;6.542;2023-07-09T14:29:41;29.40;53.90
1405;DHT22;697;51.114;6.542;2023-07-09T14:32:32;29.00;58.10
1405;DHT22;697;51.114;6.542;2023-07-09T14:35:00;28.40;62.50
1405;DHT22;697;51.114;6.542;2023-07-09T14:37:27;28.00;68.40
1405;DHT22;697;51.114;6.542;2023-07-09T14:39:54;27.60;71.50
1405;DHT22;697;51.114;6.542;2023-07-09T14:42:21;27.20;72.70
1405;DHT22;697;51.114;6.542;2023-07-09T14:44:49;26.80;75.40
1405;DHT22;697;51.114;6.542;2023-07-09T14:47:18;26.50;79.00
1405;DHT22;697;51.114;6.542;2023-07-09T14:49:47;26.30;82.80
1405;DHT22;697;51.114;6.542;2023-07-09T14:52:16;26.40;85.40
1405;DHT22;697;51.114;6.542;2023-07-09T14:54:44;26.50;85.30
1405;DHT22;697;51.114;6.542;2023-07-09T14:57:18;26.60;85.10
1405;DHT22;697;51.114;6.542;2023-07-09T14:59:45;26.70;85.20
1405;DHT22;697;51.114;6.542;2023-07-09T15:02:31;26.80;85.20
1405;DHT22;697;51.114;6.542;2023-07-09T15:05:02;26.90;82.10
1405;DHT22;697;51.114;6.542;2023-07-09T15:07:29;27.10;84.10
1405;DHT22;697;51.114;6.542;2023-07-09T15:09:56;27.30;85.40
1405;DHT22;697;51.114;6.542;2023-07-09T15:12:27;27.30;83.60
1405;DHT22;697;51.114;6.542;2023-07-09T15:15:01;27.20;82.90
1405;DHT22;697;51.114;6.542;2023-07-09T15:17:28;27.10;84.10
1405;DHT22;697;51.114;6.542;2023-07-09T15:19:55;27.00;84.60
1405;DHT22;697;51.114;6.542;2023-07-09T15:22:28;26.80;85.40
1405;DHT22;697;51.114;6.542;2023-07-09T15:24:57;26.60;87.00
1405;DHT22;697;51.114;6.542;2023-07-09T15:27:23;26.60;87.70
1405;DHT22;697;51.114;6.542;2023-07-09T15:29:50;26.70;84.60
1405;DHT22;697;51.114;6.542;2023-07-09T15:32:17;27.00;85.60
1405;DHT22;697;51.114;6.542;2023-07-09T15:34:44;27.00;85.40
1405;DHT22;697;51.114;6.542;2023-07-09T15:37:12;27.00;86.20
1405;DHT22;697;51.114;6.542;2023-07-09T15:39:41;26.90;86.10
1405;DHT22;697;51.114;6.542;2023-07-09T15:42:11;26.90;86.60
1405;DHT22;697;51.114;6.542;2023-07-09T15:44:39;26.90;87.80
1405;DHT22;697;51.114;6.542;2023-07-09T15:47:13;27.00;88.10
1405;DHT22;697;51.114;6.542;2023-07-09T15:49:42;27.10;87.90
1405;DHT22;697;51.114;6.542;2023-07-09T15:52:09;27.30;88.40
1405;DHT22;697;51.114;6.542;2023-07-09T15:54:36;27.40;86.90
1405;DHT22;697;51.114;6.542;2023-07-09T15:57:05;27.60;86.50
1405;DHT22;697;51.114;6.542;2023-07-09T15:59:35;27.80;86.90
1405;DHT22;697;51.114;6.542;2023-07-09T16:02:10;28.10;86.00
1405;DHT22;697;51.114;6.542;2023-07-09T16:04:37;28.40;83.80
1405;DHT22;697;51.114;6.542;2023-07-09T16:07:04;28.60;83.30
1405;DHT22;697;51.114;6.542;2023-07-09T16:09:31;28.80;82.40
1405;DHT22;697;51.114;6.542;2023-07-09T16:11:58;28.90;81.60
1405;DHT22;697;51.114;6.542;2023-07-09T16:14:29;29.10;80.40
1405;DHT22;697;51.114;6.542;2023-07-09T16:16:58;29.20;80.30
1405;DHT22;697;51.114;6.542;2023-07-09T16:19:28;29.20;77.60
1405;DHT22;697;51.114;6.542;2023-07-09T16:21:57;29.30;77.40
1405;DHT22;697;51.114;6.542;2023-07-09T16:24:26;29.40;76.70
1405;DHT22;697;51.114;6.542;2023-07-09T16:26:54;29.50;76.00
1405;DHT22;697;51.114;6.542;2023-07-09T16:29:24;29.60;76.10
1405;DHT22;697;51.114;6.542;2023-07-09T16:31:54;29.70;75.40